LGSMLGTS

Guest
Details From LGSM - SAMOS
To LGTS - Thessalonik Makedonia
Flight Number -
Tags decoded
Created
Modified
Stats Distance 250 nm / 463 km
Max Altitude 0 ft / 0 m
Waypoints 2
Social Downloads 2
Likes 0
Share VATSIM

Download

Looking for another format? Having issues loading an existing format? Contact us
Advertisement - Login to hide

Notes

Requested: LGSM LGTS

Route

LGSM LGTS

ID Type Via Altitude Latitude Longitude Leg Dist Tot Dist Heading (true) Name
O LGSM APT - 0 ft / 0 m 37.68901˚ 26.91112˚ - 0 nm - SAMOS
O LGTS APT - 0 ft / 0 m 40.51952˚ 22.97202˚ 250 nm 250 nm 314° / 312° Thessalonik Makedonia

Altitude Profile

Advertisement - Login to hide

Weather


0- 5 10 15 20 25 30 35+ Temperature / ° C

Clouds and Precipitation
Forecast for 2018-05-22 12:00 UTC. Updated an hour ago

Ground ~20,000 ft ~40,000 ft Winds

LGSM

Details ICAO LGSM (SMI)
Name SAMOS
Region Greece
Timezone Europe/Athens (UTC+3.0)
Stats Elevation 19 ft / 6 m (AMSL)
Location 37.689012° 26.911123°
Runways 1
Magnetic Variation 4.843° E

METAR

LGSM 221220Z 02011KT 350V050 9999 FEW035 29/14 Q1013

Decode

TAF

Not found

Departure Runways

ID Width Length Bearing (true) Bearing (mag) Surface Threshold Offset Overrun Length
09 148 ft / 45 m 6,690 ft / 2,039 m 94.02° 89.18° Asphalt 230 ft / 70 m 0 ft / 0 m
27 148 ft / 45 m 6,690 ft / 2,039 m 274.03° 269.19° Asphalt 0 ft / 0 m 0 ft / 0 m

LGTS

Details ICAO LGTS (SKG)
Name Thessalonik Makedonia
Region Greece
Timezone Europe/Athens (UTC+3.0)
Stats Elevation 22 ft / 7 m (AMSL)
Location 40.519522° 22.972017°
Runways 2
Magnetic Variation 4.666° E

METAR

LGTS 221220Z 16006KT 9999 SCT030 27/14 Q1017 NOSIG

Decode

TAF

TAF LGTS 221100Z 2212/2312 16010KT 9999 FEW030 PROB30 TEMPO 2212/2215 6000 SHRA FEW020CB BKN025 BECMG 2218/2220 VRB03KT BECMG 2309/2311 16010KT SCT030 PROB30 TEMPO 2310/2312 6000 SHRA FEW020CB BKN025

Decode

Destination Runways

ID Width Length Bearing (true) Bearing (mag) Surface Threshold Offset Overrun Length
10 164 ft / 50 m 7,990 ft / 2,435 m 103.95° 99.28° Asphalt 0 ft / 0 m 150 ft / 46 m
16 197 ft / 60 m 7,927 ft / 2,416 m 166.35° 161.68° Asphalt 0 ft / 0 m 200 ft / 61 m
28 164 ft / 50 m 7,990 ft / 2,435 m 283.97° 279.30° Asphalt 0 ft / 0 m 150 ft / 46 m
34 197 ft / 60 m 7,927 ft / 2,416 m 346.36° 341.69° Asphalt 0 ft / 0 m 200 ft / 61 m

Approach Navaids

Runway Type Ident Frequency Range Bearing (true) Bearing (mag) Slope Elevation
10 Localiser IMAK 109.50 MHz 18 nm / 33 km 103.99° 99.32° - 19 ft / 6 m (AMSL)
10 Glidescope IMAK 109.50 MHz 10 nm / 19 km 103.96° 99.30° 3.00° 8 ft / 2 m (AMSL)
10 DME IMAK 109.50 MHz 18 nm / 33 km - - - 8 ft / 2 m (AMSL)
16 Localiser ITSL 110.30 MHz 18 nm / 33 km 166.62° 161.95° - 16 ft / 5 m (AMSL)
16 Glidescope ITSL 110.30 MHz 10 nm / 19 km 166.35° 161.69° 3.00° 16 ft / 5 m (AMSL)
16 DME ITSL 110.30 MHz 18 nm / 33 km - - - 16 ft / 5 m (AMSL)

Popular Alternatives